Time;durP1;ratioP1;P1;durP2;ratioP2;P2;SDS_P1;SDS_P2;PMS_P1;PMS_P2;Temp;Humidity;BMP_temperature;BMP_pressure;BME280_temperature;BME280_humidity;BME280_pressure;Samples;Min_cycle;Max_cycle;Signal;HPM_P1;HPM_P2
2022/09/16 00:00:30;;;;;;;9.25;7.22;;;20.40;99.90;;;;;;5093879;28;20047;-79
2022/09/16 00:02:57;;;;;;;8.98;7.32;;;20.50;99.90;;;;;;5094233;28;20024;-79
2022/09/16 00:05:23;;;;;;;10.68;6.40;;;20.40;99.90;;;;;;5094370;28;20460;-79
2022/09/16 00:07:49;;;;;;;8.55;6.25;;;20.30;99.90;;;;;;5093812;28;20028;-79
2022/09/16 00:10:14;;;;;;;6.47;5.60;;;20.40;99.90;;;;;;5093643;28;20096;-79
2022/09/16 00:12:40;;;;;;;6.50;5.90;;;20.30;99.90;;;;;;5094279;28;20145;-79
2022/09/16 00:15:07;;;;;;;13.68;6.50;;;20.30;99.90;;;;;;5093462;28;20055;-79
2022/09/16 00:17:33;;;;;;;7.35;6.13;;;20.30;99.90;;;;;;5093597;28;20028;-79
2022/09/16 00:19:59;;;;;;;7.13;5.30;;;20.30;99.90;;;;;;5093437;28;20149;-80
2022/09/16 00:22:26;;;;;;;8.10;5.57;;;20.40;99.90;;;;;;5093712;28;20028;-79
2022/09/16 00:24:52;;;;;;;8.52;5.90;;;20.40;99.90;;;;;;5093547;28;20031;-79
2022/09/16 00:27:18;;;;;;;9.65;6.30;;;20.50;99.90;;;;;;5093573;28;20380;-79
2022/09/16 00:29:43;;;;;;;7.30;5.75;;;20.20;99.90;;;;;;5092796;28;20024;-79
2022/09/16 00:32:09;;;;;;;9.13;5.65;;;20.20;99.90;;;;;;5093220;28;20089;-79
2022/09/16 00:34:34;;;;;;;9.13;7.07;;;20.30;99.90;;;;;;5093072;28;20032;-79
2022/09/16 00:37:02;;;;;;;7.72;6.90;;;20.30;99.90;;;;;;5093260;28;20012;-79
2022/09/16 00:39:28;;;;;;;6.95;5.97;;;20.30;99.90;;;;;;5093436;28;20027;-80
2022/09/16 00:41:54;;;;;;;7.60;7.00;;;20.20;99.90;;;;;;5093571;28;20024;-79
2022/09/16 00:44:50;;;;;;;8.43;6.25;;;20.30;99.90;;;;;;5092568;28;20533;-79
2022/09/16 00:47:31;;;;;;;6.50;5.90;;;20.20;99.90;;;;;;5092974;28;20464;-79
2022/09/16 00:50:06;;;;;;;7.10;6.40;;;20.10;99.90;;;;;;5093247;28;20032;-79
2022/09/16 00:52:33;;;;;;;9.43;5.07;;;20.10;99.90;;;;;;5093014;28;20020;-79
2022/09/16 00:55:02;;;;;;;9.43;4.47;;;20.20;99.90;;;;;;5092894;28;20032;-79
2022/09/16 00:57:28;;;;;;;3.60;2.35;;;20.20;99.90;;;;;;5092956;28;20112;-79
2022/09/16 00:59:56;;;;;;;3.05;2.50;;;20.30;99.90;;;;;;5092780;28;20047;-79
2022/09/16 01:02:23;;;;;;;4.30;2.00;;;20.20;99.90;;;;;;5092725;28;20048;-79
2022/09/16 01:05:03;;;;;;;3.00;2.55;;;20.20;99.90;;;;;;5093415;28;20050;-79
2022/09/16 01:07:42;;;;;;;2.80;2.15;;;20.20;99.90;;;;;;5093185;28;20392;-79
2022/09/16 01:10:08;;;;;;;2.00;1.83;;;20.20;99.90;;;;;;5093006;28;20028;-79
2022/09/16 01:12:35;;;;;;;1.85;1.50;;;20.10;99.90;;;;;;5092402;28;20024;-79
2022/09/16 01:15:05;;;;;;;1.40;1.30;;;20.20;99.90;;;;;;5092799;28;20024;-79
2022/09/16 01:17:44;;;;;;;1.63;1.40;;;20.10;99.90;;;;;;5110417;28;20114;-79
2022/09/16 01:20:34;;;;;;;4.32;1.85;;;20.20;99.90;;;;;;5112870;28;20023;-79
2022/09/16 01:23:15;;;;;;;2.45;1.85;;;20.30;99.90;;;;;;5094916;28;20055;-79
2022/09/16 01:25:46;;;;;;;2.72;1.50;;;20.30;99.90;;;;;;5112735;28;20033;-79
2022/09/16 01:28:33;;;;;;;3.45;2.10;;;20.20;99.90;;;;;;5112852;28;20035;-79
2022/09/16 01:31:20;;;;;;;2.47;1.60;;;20.10;99.90;;;;;;5098394;28;20441;-79
2022/09/16 01:34:03;;;;;;;2.08;1.60;;;20.10;99.90;;;;;;5092341;28;20040;-79
2022/09/16 01:36:46;;;;;;;2.80;1.77;;;20.00;99.90;;;;;;5092310;28;20020;-79
2022/09/16 01:39:17;;;;;;;2.58;1.83;;;20.20;99.90;;;;;;5092239;28;20052;-79
2022/09/16 01:41:42;;;;;;;2.00;1.90;;;20.10;99.90;;;;;;5092339;28;20043;-79
2022/09/16 01:44:27;;;;;;;4.93;2.30;;;20.10;99.90;;;;;;5092269;28;20536;-79
2022/09/16 01:47:04;;;;;;;2.90;2.70;;;20.30;99.90;;;;;;5092026;28;20024;-79
2022/09/16 01:49:35;;;;;;;5.43;2.83;;;20.30;99.90;;;;;;5092069;28;20032;-79
2022/09/16 01:52:08;;;;;;;4.03;3.58;;;20.30;99.90;;;;;;5092504;28;20376;-79
2022/09/16 01:54:46;;;;;;;4.97;3.45;;;20.10;99.90;;;;;;5095848;28;20114;-79
2022/09/16 01:57:24;;;;;;;5.32;4.18;;;20.10;99.90;;;;;;5098797;28;20103;-79
2022/09/16 02:00:00;;;;;;;6.65;4.32;;;20.10;99.90;;;;;;5098892;28;20089;-80
2022/09/16 02:02:37;;;;;;;5.03;4.38;;;20.00;99.90;;;;;;5098737;28;20503;-79
2022/09/16 02:05:08;;;;;;;5.38;4.30;;;19.90;99.90;;;;;;5098805;28;20085;-79
2022/09/16 02:07:40;;;;;;;5.75;4.85;;;19.90;99.90;;;;;;5099092;28;20119;-79
2022/09/16 02:10:27;;;;;;;6.38;4.63;;;19.90;99.90;;;;;;5098019;28;20016;-79
2022/09/16 02:13:02;;;;;;;7.93;5.90;;;19.90;99.90;;;;;;5085845;28;20032;-79
2022/09/16 02:15:31;;;;;;;6.43;5.65;;;20.10;99.90;;;;;;5099531;28;20032;-79
2022/09/16 02:18:11;;;;;;;5.65;5.03;;;20.10;99.90;;;;;;5119160;28;20027;-79
2022/09/16 02:20:41;;;;;;;7.28;5.93;;;20.00;99.90;;;;;;5119166;28;20065;-79
2022/09/16 02:23:16;;;;;;;6.68;5.68;;;19.90;99.90;;;;;;5119163;28;20027;-79
2022/09/16 02:25:44;;;;;;;6.97;5.97;;;20.10;99.90;;;;;;5118491;28;20027;-78
2022/09/16 02:28:16;;;;;;;9.88;7.65;;;20.20;99.90;;;;;;5118960;28;20041;-79
2022/09/16 02:30:46;;;;;;;9.10;7.82;;;20.10;99.90;;;;;;5107112;28;20122;-78
2022/09/16 02:33:13;;;;;;;9.75;7.80;;;20.20;99.90;;;;;;5098377;28;20055;-79
2022/09/16 02:35:40;;;;;;;10.32;9.25;;;20.10;99.90;;;;;;5098701;28;20433;-79
2022/09/16 02:38:14;;;;;;;10.07;9.05;;;20.20;99.90;;;;;;5098520;28;20051;-79
2022/09/16 02:40:51;;;;;;;9.85;8.38;;;20.20;99.90;;;;;;5098535;28;20105;-79
2022/09/16 02:43:18;;;;;;;10.75;8.27;;;20.00;99.90;;;;;;5098349;28;20043;-79
2022/09/16 02:45:59;;;;;;;13.85;8.65;;;20.00;99.90;;;;;;5098426;28;20028;-79
2022/09/16 02:48:31;;;;;;;10.27;7.75;;;20.20;99.90;;;;;;5098195;28;20122;-79
2022/09/16 02:51:15;;;;;;;10.55;7.93;;;20.20;99.90;;;;;;5098405;28;20024;-78
2022/09/16 02:53:46;;;;;;;10.30;8.10;;;20.10;99.90;;;;;;5098401;28;20024;-79
2022/09/16 02:56:23;;;;;;;9.45;8.52;;;20.10;99.90;;;;;;5098340;28;20035;-79
2022/09/16 02:58:49;;;;;;;8.40;7.60;;;20.00;99.90;;;;;;5098334;28;20031;-79
2022/09/16 03:01:16;;;;;;;8.00;7.18;;;20.00;99.90;;;;;;5098474;28;20024;-78
2022/09/16 03:03:42;;;;;;;8.38;7.68;;;20.00;99.90;;;;;;5098739;28;20066;-79
2022/09/16 03:06:07;;;;;;;9.43;8.43;;;20.00;99.90;;;;;;5095064;28;20028;-79
2022/09/16 03:08:35;;;;;;;10.50;7.60;;;20.00;99.90;;;;;;5094475;28;20043;-79
2022/09/16 03:11:23;;;;;;;9.45;8.52;;;19.90;99.90;;;;;;5094998;28;20031;-79
2022/09/16 03:14:16;;;;;;;9.75;8.68;;;19.80;99.90;;;;;;5095176;28;20365;-79
2022/09/16 03:17:02;;;;;;;10.77;8.90;;;19.90;99.90;;;;;;5106145;28;20369;-79
2022/09/16 03:19:56;;;;;;;10.35;9.35;;;19.80;99.90;;;;;;5115283;28;20498;-79
2022/09/16 03:22:48;;;;;;;10.45;9.45;;;19.80;99.90;;;;;;5114811;28;20107;-79
2022/09/16 03:25:34;;;;;;;11.15;10.13;;;19.70;99.90;;;;;;5115211;28;20048;-78
2022/09/16 03:28:15;;;;;;;14.50;10.85;;;19.60;99.90;;;;;;5114774;28;20032;-79
2022/09/16 03:30:58;;;;;;;13.25;11.43;;;19.60;99.90;;;;;;5103062;28;20116;-79
2022/09/16 03:33:38;;;;;;;12.55;11.20;;;19.80;99.90;;;;;;5094790;28;20067;-79
2022/09/16 03:36:07;;;;;;;12.88;11.55;;;19.70;99.90;;;;;;5094777;28;20040;-79
2022/09/16 03:38:37;;;;;;;13.10;11.73;;;19.70;99.90;;;;;;5094383;28;20089;-79
2022/09/16 03:41:05;;;;;;;13.90;12.60;;;19.70;99.90;;;;;;5094374;28;20433;-79
2022/09/16 03:43:30;;;;;;;16.45;14.43;;;19.60;99.90;;;;;;5094706;28;20024;-78
2022/09/16 03:45:56;;;;;;;15.68;14.18;;;19.50;99.90;;;;;;5094429;28;20032;-79
2022/09/16 03:48:22;;;;;;;14.15;12.73;;;19.70;99.90;;;;;;5094189;28;20040;-79
2022/09/16 03:50:48;;;;;;;15.05;13.50;;;19.70;99.90;;;;;;5093843;28;20027;-79
2022/09/16 03:53:13;;;;;;;14.68;13.38;;;19.60;99.90;;;;;;5094556;28;20020;-79
2022/09/16 03:55:39;;;;;;;16.08;13.90;;;19.50;99.90;;;;;;5093863;28;20032;-79
2022/09/16 03:58:04;;;;;;;14.13;12.77;;;19.50;99.90;;;;;;5094095;28;20028;-79
2022/09/16 04:00:30;;;;;;;13.50;12.18;;;19.60;99.90;;;;;;5094320;28;20063;-78
2022/09/16 04:02:57;;;;;;;13.80;12.35;;;19.50;99.90;;;;;;5093911;28;20502;-79
2022/09/16 04:05:23;;;;;;;14.18;12.32;;;19.50;99.90;;;;;;5093653;28;20054;-79
2022/09/16 04:07:49;;;;;;;14.57;13.23;;;19.50;99.90;;;;;;5093002;28;20455;-81
2022/09/16 04:10:15;;;;;;;12.68;11.50;;;19.50;99.90;;;;;;5093667;28;20122;-79
2022/09/16 04:12:40;;;;;;;12.32;11.23;;;19.50;99.90;;;;;;5094223;28;20024;-79
2022/09/16 04:15:06;;;;;;;12.60;11.43;;;19.40;99.90;;;;;;5093712;28;20472;-80
2022/09/16 04:17:33;;;;;;;12.57;11.23;;;19.60;99.90;;;;;;5093261;28;20567;-79
2022/09/16 04:19:58;;;;;;;12.63;10.82;;;19.50;99.90;;;;;;5093774;28;20046;-79
2022/09/16 04:22:28;;;;;;;11.63;10.52;;;19.30;99.90;;;;;;5093225;28;20118;-80
2022/09/16 04:24:53;;;;;;;12.13;10.32;;;19.00;99.90;;;;;;5093397;28;20339;-79
2022/09/16 04:27:19;;;;;;;12.20;10.82;;;19.10;99.90;;;;;;5093942;28;20468;-79
2022/09/16 04:29:45;;;;;;;11.35;10.32;;;19.30;99.90;;;;;;5075337;28;20035;-78
2022/09/16 04:32:11;;;;;;;10.75;9.73;;;19.30;99.90;;;;;;5093157;28;20123;-79
2022/09/16 04:34:36;;;;;;;11.32;10.23;;;19.30;99.90;;;;;;5093047;28;20067;-80
2022/09/16 04:37:03;;;;;;;11.32;10.23;;;19.40;99.90;;;;;;5093593;28;20036;-80
2022/09/16 04:39:29;;;;;;;13.13;10.15;;;19.50;99.90;;;;;;5093262;28;20054;-79
2022/09/16 04:41:54;;;;;;;11.70;9.20;;;19.30;99.90;;;;;;5093319;28;20031;-81
2022/09/16 04:44:20;;;;;;;10.05;9.15;;;19.30;99.90;;;;;;5093640;28;20388;-81
2022/09/16 04:46:46;;;;;;;9.75;8.77;;;19.10;99.90;;;;;;5093047;28;20110;-81
2022/09/16 04:49:11;;;;;;;9.60;8.80;;;19.30;99.90;;;;;;5092711;28;20035;-81
2022/09/16 04:51:37;;;;;;;10.38;9.43;;;19.10;99.90;;;;;;5093147;28;20026;-80
2022/09/16 04:54:03;;;;;;;9.75;8.82;;;19.10;99.90;;;;;;5092932;28;20480;-81
2022/09/16 04:56:31;;;;;;;10.05;9.05;;;19.10;99.90;;;;;;5092901;28;20028;-79
2022/09/16 04:59:02;;;;;;;9.55;8.68;;;18.90;99.90;;;;;;5092411;28;20024;-80
2022/09/16 05:01:30;;;;;;;10.20;9.20;;;19.00;99.90;;;;;;5093036;28;20021;-80
2022/09/16 05:03:58;;;;;;;9.50;8.27;;;18.80;99.90;;;;;;5092628;28;20106;-79
2022/09/16 05:06:27;;;;;;;9.27;8.38;;;18.70;99.90;;;;;;5092717;28;20020;-79
2022/09/16 05:08:54;;;;;;;9.38;8.48;;;18.70;99.90;;;;;;5092676;28;20047;-80
2022/09/16 05:11:26;;;;;;;10.35;8.63;;;18.60;99.90;;;;;;5092942;28;20076;-79
2022/09/16 05:13:52;;;;;;;9.85;8.85;;;18.60;99.90;;;;;;5092564;28;20024;-79
2022/09/16 05:16:20;;;;;;;10.35;8.77;;;18.60;99.90;;;;;;5092224;28;20512;-79
2022/09/16 05:18:47;;;;;;;9.25;8.45;;;18.60;99.90;;;;;;5093227;28;20067;-79
2022/09/16 05:21:17;;;;;;;9.60;8.60;;;18.60;99.90;;;;;;5092401;28;20028;-79
2022/09/16 05:23:43;;;;;;;9.35;8.40;;;18.60;99.90;;;;;;5092614;28;20076;-79
2022/09/16 05:26:20;;;;;;;11.10;8.55;;;18.60;99.90;;;;;;5092430;28;20016;-80
2022/09/16 05:28:46;;;;;;;10.20;7.97;;;18.70;99.90;;;;;;5091697;28;20404;-80
2022/09/16 05:31:24;;;;;;;12.30;8.13;;;18.70;99.90;;;;;;5092606;28;20031;-79
2022/09/16 05:34:02;;;;;;;9.43;8.32;;;18.70;99.90;;;;;;5092035;28;20153;-79
2022/09/16 05:36:30;;;;;;;9.05;8.20;;;18.60;99.90;;;;;;5090460;28;20024;-74
2022/09/16 05:38:55;;;;;;;9.48;8.13;;;18.80;99.90;;;;;;5092278;28;20024;-77
2022/09/16 05:41:22;;;;;;;9.65;8.25;;;18.90;99.90;;;;;;5092212;28;20508;-74
2022/09/16 05:43:48;;;;;;;8.40;7.40;;;19.00;99.90;;;;;;5092281;28;20043;-81
2022/09/16 05:46:19;;;;;;;9.23;7.32;;;19.00;99.90;;;;;;5092056;28;20020;-81
2022/09/16 05:48:46;;;;;;;10.73;8.45;;;18.90;99.90;;;;;;5091634;28;20052;-85
2022/09/16 05:51:14;;;;;;;10.63;8.55;;;18.90;99.90;;;;;;5073712;28;20622;-81
2022/09/16 05:53:40;;;;;;;10.50;8.98;;;18.90;99.90;;;;;;5092138;28;20032;-80
2022/09/16 05:56:10;;;;;;;10.65;9.20;;;18.90;99.90;;;;;;5091426;28;20480;-80
2022/09/16 05:58:36;;;;;;;10.75;8.95;;;18.80;99.90;;;;;;5091841;28;20038;-80
2022/09/16 06:01:04;;;;;;;10.77;9.68;;;18.90;99.90;;;;;;5092463;28;20017;-80
2022/09/16 06:03:33;;;;;;;13.68;10.00;;;18.90;99.90;;;;;;5073764;28;20115;-81
2022/09/16 06:06:04;;;;;;;10.02;9.13;;;19.00;99.90;;;;;;5092406;28;20111;-80
2022/09/16 06:08:33;;;;;;;10.52;8.90;;;19.00;99.90;;;;;;5092676;28;20039;-80
2022/09/16 06:11:07;;;;;;;11.80;9.20;;;19.10;99.90;;;;;;5091860;28;20107;-81
2022/09/16 06:13:33;;;;;;;9.85;8.85;;;19.20;99.90;;;;;;5092094;28;20020;-81
2022/09/16 06:16:00;;;;;;;9.15;8.05;;;19.30;99.90;;;;;;5091762;28;20097;-80
2022/09/16 06:18:28;;;;;;;8.25;7.55;;;19.30;99.90;;;;;;5092406;28;20024;-80
2022/09/16 06:20:54;;;;;;;9.55;7.80;;;19.50;99.90;;;;;;5092181;28;20107;-81
2022/09/16 06:23:21;;;;;;;8.50;7.80;;;19.60;99.90;;;;;;5092569;28;20051;-80
2022/09/16 06:25:47;;;;;;;9.02;8.23;;;19.80;99.90;;;;;;5092186;28;20024;-80
2022/09/16 06:28:13;;;;;;;8.52;7.82;;;19.90;99.90;;;;;;5092442;28;20038;-80
2022/09/16 06:30:39;;;;;;;8.50;7.70;;;19.90;99.90;;;;;;5091545;28;20103;-81
2022/09/16 06:33:05;;;;;;;7.55;6.95;;;19.90;99.90;;;;;;5091856;28;20550;-81
2022/09/16 06:35:33;;;;;;;8.55;7.75;;;20.00;99.90;;;;;;5091679;28;20020;-80
2022/09/16 06:37:59;;;;;;;8.98;7.07;;;20.10;99.90;;;;;;5092284;28;20028;-80
2022/09/16 06:40:25;;;;;;;8.68;7.80;;;20.00;99.90;;;;;;5093408;28;20158;-80
2022/09/16 06:42:54;;;;;;;10.68;7.60;;;19.90;99.90;;;;;;5095878;28;20369;-80
2022/09/16 06:45:21;;;;;;;7.25;6.65;;;19.70;99.90;;;;;;5095628;28;20365;-81
2022/09/16 06:47:46;;;;;;;7.63;6.78;;;19.70;99.90;;;;;;5095610;28;20369;-80
2022/09/16 06:50:12;;;;;;;8.30;7.60;;;19.80;99.90;;;;;;5095516;28;20043;-80
2022/09/16 06:52:38;;;;;;;8.10;7.22;;;19.90;99.90;;;;;;5095569;28;20028;-81
2022/09/16 06:55:04;;;;;;;10.27;7.75;;;20.00;99.90;;;;;;5095848;28;20028;-81
2022/09/16 06:57:30;;;;;;;8.35;7.47;;;20.20;99.90;;;;;;5095326;28;20438;-81
2022/09/16 06:59:55;;;;;;;8.25;6.78;;;20.40;99.90;;;;;;5094937;28;20032;-80
2022/09/16 07:02:22;;;;;;;9.48;6.38;;;20.30;99.90;;;;;;5095602;28;20025;-81
2022/09/16 07:04:48;;;;;;;8.40;7.05;;;20.30;99.90;;;;;;5095689;28;20081;-81
2022/09/16 07:07:14;;;;;;;7.68;6.88;;;20.50;99.90;;;;;;5095295;28;20020;-80
2022/09/16 07:09:40;;;;;;;8.52;6.93;;;20.50;99.90;;;;;;5095097;28;20498;-80
2022/09/16 07:12:07;;;;;;;7.65;6.38;;;20.40;99.90;;;;;;5095156;28;20036;-81
2022/09/16 07:14:32;;;;;;;7.82;7.15;;;20.40;99.90;;;;;;5094688;28;20476;-81
2022/09/16 07:16:59;;;;;;;8.10;7.25;;;20.20;99.90;;;;;;5094740;28;20031;-80
2022/09/16 07:19:25;;;;;;;7.47;6.72;;;20.10;99.90;;;;;;5095439;28;20024;-81
2022/09/16 07:21:51;;;;;;;8.02;7.22;;;20.00;99.90;;;;;;5094925;28;20028;-80
2022/09/16 07:24:16;;;;;;;7.53;6.68;;;19.90;99.90;;;;;;5094901;28;20032;-80
2022/09/16 07:26:43;;;;;;;10.60;8.00;;;19.80;99.90;;;;;;5094831;28;20032;-80
2022/09/16 07:29:12;;;;;;;8.00;7.10;;;19.80;99.90;;;;;;5094753;28;20059;-80
2022/09/16 07:31:38;;;;;;;7.97;7.28;;;19.90;99.90;;;;;;5094247;28;20031;-81
2022/09/16 07:34:06;;;;;;;11.00;7.40;;;20.10;99.90;;;;;;5094855;28;20032;-80
2022/09/16 07:36:35;;;;;;;8.63;7.65;;;20.30;99.90;;;;;;5094556;28;20032;-81
2022/09/16 07:39:02;;;;;;;8.45;7.65;;;20.40;99.90;;;;;;5094629;28;20058;-80
2022/09/16 07:41:31;;;;;;;8.63;7.00;;;20.50;99.90;;;;;;5094745;28;20085;-80
2022/09/16 07:43:58;;;;;;;7.50;6.80;;;20.60;99.90;;;;;;5094829;28;20031;-80
2022/09/16 07:46:26;;;;;;;8.43;6.82;;;20.60;99.90;;;;;;5094317;28;20028;-80
2022/09/16 07:48:53;;;;;;;9.15;6.53;;;20.50;99.90;;;;;;5094800;28;20032;-80
2022/09/16 07:51:20;;;;;;;10.93;6.72;;;20.50;99.90;;;;;;5094078;28;20032;-81
2022/09/16 07:53:47;;;;;;;9.38;7.40;;;20.60;99.90;;;;;;5094171;28;20492;-81
2022/09/16 07:56:17;;;;;;;9.52;8.52;;;20.60;99.90;;;;;;5094289;28;20024;-81
2022/09/16 07:58:44;;;;;;;9.02;8.10;;;20.50;99.90;;;;;;5093734;28;20488;-80
2022/09/16 08:01:11;;;;;;;9.43;8.43;;;20.50;99.90;;;;;;5094840;28;20024;-80
2022/09/16 08:03:38;;;;;;;11.05;7.43;;;20.50;99.90;;;;;;5094047;28;20046;-80
2022/09/16 08:06:11;;;;;;;9.70;7.60;;;20.60;99.90;;;;;;5094933;28;20016;-80
2022/09/16 08:08:37;;;;;;;9.85;8.10;;;21.00;99.90;;;;;;5093950;28;20040;-81
2022/09/16 08:11:03;;;;;;;10.13;8.02;;;21.10;99.90;;;;;;5075775;28;20038;-81
2022/09/16 08:13:31;;;;;;;8.40;7.60;;;21.40;99.90;;;;;;5093557;28;20035;-80
2022/09/16 08:16:03;;;;;;;9.60;7.95;;;21.60;99.90;;;;;;5094193;28;20388;-80
2022/09/16 08:18:29;;;;;;;8.88;7.93;;;21.70;99.90;;;;;;5093689;28;20028;-80
2022/09/16 08:20:55;;;;;;;9.90;7.60;;;21.80;99.90;;;;;;5093862;28;20024;-80
2022/09/16 08:23:22;;;;;;;7.53;6.80;;;21.80;99.90;;;;;;5093757;28;20365;-80
2022/09/16 08:25:58;;;;;;;8.02;7.20;;;21.90;99.90;;;;;;5094209;28;20020;-80
2022/09/16 08:28:24;;;;;;;7.97;6.47;;;21.80;99.90;;;;;;5093112;28;20043;-81
2022/09/16 08:30:50;;;;;;;10.00;8.02;;;22.00;99.90;;;;;;5093487;28;20514;-81
2022/09/16 08:33:19;;;;;;;10.68;8.38;;;22.10;99.90;;;;;;5093496;28;20082;-81
2022/09/16 08:35:46;;;;;;;8.27;7.38;;;22.20;99.90;;;;;;5094000;28;20511;-80
2022/09/16 08:38:12;;;;;;;8.25;7.38;;;21.60;99.90;;;;;;5093551;28;20031;-80
2022/09/16 08:40:43;;;;;;;7.05;6.28;;;21.70;99.90;;;;;;5093235;28;20028;-80
2022/09/16 08:43:24;;;;;;;7.57;6.63;;;21.90;99.90;;;;;;5093483;28;20434;-80
2022/09/16 08:46:30;;;;;;;7.60;6.90;;;22.30;99.90;;;;;;5093242;28;20038;-80
2022/09/16 08:49:21;;;;;;;7.57;6.88;;;22.60;99.90;;;;;;5011229;28;20041;-81
2022/09/16 08:51:48;;;;;;;7.10;5.60;;;22.70;99.90;;;;;;5010969;28;20425;-80
2022/09/16 08:54:46;;;;;;;6.60;5.65;;;22.80;99.90;;;;;;5011095;28;20037;-81
2022/09/16 08:57:16;;;;;;;6.10;5.07;;;23.10;99.90;;;;;;5010326;28;20069;-80
2022/09/16 08:59:47;;;;;;;7.13;5.20;;;23.10;99.90;;;;;;5010721;28;20033;-80
2022/09/16 09:02:33;;;;;;;8.05;5.20;;;23.30;99.90;;;;;;5010983;28;20034;-80
2022/09/16 09:05:00;;;;;;;6.45;4.90;;;23.50;99.90;;;;;;5010288;28;20030;-80
2022/09/16 09:07:51;;;;;;;5.63;4.72;;;23.50;99.90;;;;;;5011071;28;20082;-80
2022/09/16 09:10:32;;;;;;;7.18;5.22;;;23.80;99.90;;;;;;4993813;28;20045;-80
2022/09/16 09:13:02;;;;;;;6.07;4.63;;;23.60;99.90;;;;;;5011056;28;20057;-80
2022/09/16 09:15:29;;;;;;;5.85;5.35;;;23.70;99.90;;;;;;5010538;28;20130;-81
2022/09/16 09:18:00;;;;;;;5.32;4.82;;;23.70;99.90;;;;;;5010600;28;20178;-80
2022/09/16 09:20:44;;;;;;;6.50;4.97;;;24.10;99.90;;;;;;5010631;28;20069;-81
2022/09/16 09:23:34;;;;;;;8.63;4.75;;;24.90;99.90;;;;;;5010508;28;20505;-80
2022/09/16 09:26:21;;;;;;;8.27;5.30;;;25.10;99.90;;;;;;5080497;28;20043;-80
2022/09/16 09:29:05;;;;;;;6.28;4.90;;;25.50;99.90;;;;;;5092482;28;20043;-80
2022/09/16 09:31:51;;;;;;;5.45;4.70;;;25.70;99.90;;;;;;5092427;28;20035;-80
2022/09/16 09:34:30;;;;;;;5.97;4.43;;;25.70;99.90;;;;;;5092484;28;20074;-81
2022/09/16 09:37:23;;;;;;;7.22;4.45;;;25.40;99.90;;;;;;5092690;28;20027;-81
2022/09/16 09:40:10;;;;;;;6.63;4.00;;;25.50;99.90;;;;;;5092083;28;20028;-81
2022/09/16 09:42:49;;;;;;;4.88;4.38;;;26.00;99.90;;;;;;5092438;28;20059;-81
2022/09/16 09:45:18;;;;;;;4.93;4.28;;;25.80;99.90;;;;;;5092285;28;20085;-80
2022/09/16 09:47:52;;;;;;;5.47;4.00;;;26.40;99.90;;;;;;5092307;28;20093;-81
2022/09/16 09:50:21;;;;;;;4.97;4.43;;;30.50;99.90;;;;;;5092529;28;20077;-81
2022/09/16 09:53:09;;;;;;;7.40;4.85;;;30.20;99.90;;;;;;5092476;28;20031;-80
2022/09/16 09:55:35;;;;;;;6.88;4.72;;;27.90;99.90;;;;;;5079347;28;20032;-81
2022/09/16 09:58:24;;;;;;;4.80;3.85;;;32.50;99.90;;;;;;5092218;28;20039;-81
2022/09/16 10:00:51;;;;;;;5.10;4.63;;;31.00;99.90;;;;;;5092403;28;20082;-81
2022/09/16 10:03:18;;;;;;;3.92;3.33;;;28.70;99.90;;;;;;5092247;28;20095;-81
2022/09/16 10:05:45;;;;;;;4.10;3.70;;;35.10;99.90;;;;;;5092211;28;20032;-81
2022/09/16 10:08:30;;;;;;;4.30;3.38;;;33.80;99.90;;;;;;5092048;28;20032;-81
2022/09/16 10:10:58;;;;;;;7.10;3.55;;;36.80;99.90;;;;;;5092540;28;20017;-81
2022/09/16 10:13:26;;;;;;;5.88;3.75;;;32.10;99.90;;;;;;5092345;28;20031;-81
2022/09/16 10:16:09;;;;;;;10.15;4.47;;;29.40;99.90;;;;;;5094383;28;20020;-81
2022/09/16 10:18:36;;;;;;;4.28;3.60;;;33.60;99.90;;;;;;5096157;28;20031;-81
2022/09/16 10:21:11;;;;;;;4.57;4.18;;;32.30;99.90;;;;;;5096757;28;20506;-81
2022/09/16 10:23:38;;;;;;;4.80;3.85;;;29.30;99.90;;;;;;5095827;28;20456;-81
2022/09/16 10:26:04;;;;;;;4.18;3.60;;;27.60;99.90;;;;;;5096192;28;20468;-81
2022/09/16 10:28:30;;;;;;;6.72;4.43;;;27.30;99.90;;;;;;5095804;28;20038;-81
2022/09/16 10:30:58;;;;;;;4.95;3.90;;;34.50;99.90;;;;;;5095804;28;20042;-81
2022/09/16 10:33:26;;;;;;;5.20;3.97;;;38.60;99.90;;;;;;5096301;28;20059;-81
2022/09/16 10:35:59;;;;;;;5.78;4.40;;;38.80;99.90;;;;;;5095921;28;20507;-81
2022/09/16 10:39:05;;;;;;;4.95;3.70;;;39.40;99.90;;;;;;5095329;28;20027;-81
2022/09/16 10:41:43;;;;;;;4.38;3.75;;;40.00;99.90;;;;;;5095064;28;20043;-81
2022/09/16 10:44:22;;;;;;;5.43;3.70;;;34.60;99.90;;;;;;5096738;28;20028;-81
2022/09/16 10:46:57;;;;;;;3.85;3.45;;;31.80;99.90;;;;;;5095588;28;20048;-81
2022/09/16 10:49:51;;;;;;;4.00;3.60;;;32.40;99.90;;;;;;5095713;28;20028;-81
2022/09/16 10:52:19;;;;;;;3.55;3.13;;;37.90;99.90;;;;;;5092031;28;20523;-81
2022/09/16 10:54:45;;;;;;;5.20;3.40;;;37.90;99.90;;;;;;5095988;28;20092;-81
2022/09/16 10:57:23;;;;;;;5.03;3.05;;;39.40;99.90;;;;;;5095289;28;20032;-81
2022/09/16 11:00:16;;;;;;;4.35;3.03;;;41.80;99.90;;;;;;5095393;28;20024;-81
2022/09/16 11:03:00;;;;;;;3.10;2.80;;;43.40;99.90;;;;;;5095509;28;20465;-81
2022/09/16 11:05:38;;;;;;;3.10;2.80;;;42.90;99.90;;;;;;5095308;28;20021;-81
2022/09/16 11:08:32;;;;;;;3.90;3.10;;;41.70;99.90;;;;;;5095745;28;20032;-81
2022/09/16 11:11:30;;;;;;;3.53;2.70;;;39.60;99.90;;;;;;5095229;28;20043;-81
2022/09/16 11:14:10;;;;;;;4.22;2.63;;;35.70;99.90;;;;;;5013028;28;20596;-81
2022/09/16 11:17:04;;;;;;;2.92;2.63;;;30.80;99.90;;;;;;5012836;28;20490;-81
2022/09/16 11:19:56;;;;;;;3.50;3.00;;;28.80;99.90;;;;;;5012988;28;20030;-81
2022/09/16 11:22:56;;;;;;;3.50;3.00;;;27.60;99.90;;;;;;5012718;28;20076;-81
2022/09/16 11:25:30;;;;;;;5.30;3.30;;;26.70;99.90;;;;;;5012699;28;20482;-81
2022/09/16 11:28:36;;;;;;;3.47;3.10;;;25.80;99.90;;;;;;5011510;28;20029;-81
2022/09/16 11:31:25;;;;;;;4.30;3.45;;;25.20;99.90;;;;;;4992920;28;20479;-80
2022/09/16 11:33:57;;;;;;;3.70;3.38;;;24.60;99.90;;;;;;4993576;28;20038;-81
2022/09/16 11:36:48;;;;;;;9.13;3.58;;;24.20;99.90;;;;;;4992826;28;20052;-81
2022/09/16 11:39:23;;;;;;;4.28;3.42;;;24.20;99.90;;;;;;4992860;28;20045;-81
2022/09/16 11:42:01;;;;;;;4.72;3.40;;;24.20;99.90;;;;;;4992915;28;20414;-81
2022/09/16 11:44:54;;;;;;;4.70;3.40;;;23.70;99.90;;;;;;4993037;28;20081;-81
2022/09/16 11:47:41;;;;;;;5.60;3.70;;;23.70;99.90;;;;;;4992744;28;20065;-81
2022/09/16 11:50:28;;;;;;;4.65;3.88;;;23.70;99.90;;;;;;5052720;28;20044;-81
2022/09/16 11:53:15;;;;;;;7.13;4.43;;;23.70;99.90;;;;;;5074226;28;20024;-81
2022/09/16 11:55:44;;;;;;;5.35;3.88;;;23.30;99.90;;;;;;5074041;28;20025;-81
2022/09/16 11:58:44;;;;;;;4.53;3.78;;;23.00;99.90;;;;;;5074069;28;20025;-81
2022/09/16 12:01:35;;;;;;;9.18;4.65;;;23.00;99.90;;;;;;5073884;28;20025;-81
2022/09/16 12:04:07;;;;;;;4.25;3.85;;;23.00;99.90;;;;;;5074187;28;20025;-81
2022/09/16 12:07:06;;;;;;;4.97;4.10;;;23.30;99.90;;;;;;5073815;28;20031;-81
2022/09/16 12:10:03;;;;;;;5.80;4.55;;;23.10;99.90;;;;;;5074181;28;20101;-81
2022/09/16 12:12:36;;;;;;;7.28;4.38;;;23.10;99.90;;;;;;5073084;28;20055;-81
2022/09/16 12:15:14;;;;;;;7.30;4.43;;;22.70;99.90;;;;;;5073810;28;20025;-81
2022/09/16 12:17:42;;;;;;;6.28;4.40;;;22.60;99.90;;;;;;5092687;28;20024;-80
2022/09/16 12:20:28;;;;;;;4.60;3.90;;;22.70;99.90;;;;;;5075428;28;20365;-81
2022/09/16 12:23:04;;;;;;;4.90;4.22;;;22.80;99.90;;;;;;5093727;28;20032;-82
2022/09/16 12:25:41;;;;;;;7.13;4.70;;;23.00;99.90;;;;;;5093824;28;20035;-81
2022/09/16 12:28:25;;;;;;;5.00;4.20;;;23.50;99.90;;;;;;5093798;28;20024;-81
2022/09/16 12:31:09;;;;;;;6.82;4.18;;;24.70;99.90;;;;;;5093708;28;20032;-81
2022/09/16 12:33:43;;;;;;;4.10;3.70;;;28.20;99.90;;;;;;5093192;28;20040;-81
2022/09/16 12:36:14;;;;;;;6.15;4.47;;;31.20;99.90;;;;;;5092301;28;20046;-81
2022/09/16 12:38:39;;;;;;;5.75;3.55;;;31.70;99.90;;;;;;5093804;28;20024;-81
2022/09/16 12:41:19;;;;;;;4.47;3.70;;;32.20;99.90;;;;;;5093516;28;20476;-81
2022/09/16 12:43:54;;;;;;;6.28;4.13;;;32.80;99.90;;;;;;5093753;28;20028;-81
2022/09/16 12:46:39;;;;;;;5.45;3.85;;;30.70;99.90;;;;;;5093369;28;20111;-81
2022/09/16 12:49:30;;;;;;;7.50;4.22;;;29.40;99.90;;;;;;5093255;28;20048;-81
2022/09/16 12:52:23;;;;;;;4.55;4.00;;;29.50;99.90;;;;;;5093171;28;20059;-81
2022/09/16 12:55:03;;;;;;;4.78;4.05;;;29.30;99.90;;;;;;5093229;28;20095;-81
2022/09/16 12:57:56;;;;;;;6.07;3.80;;;28.80;99.90;;;;;;5093085;28;20073;-81
2022/09/16 13:00:31;;;;;;;5.82;3.80;;;28.90;99.90;;;;;;5093470;28;20027;-81
2022/09/16 13:03:03;;;;;;;5.32;3.55;;;31.40;99.90;;;;;;5092759;28;20038;-81
2022/09/16 13:05:35;;;;;;;5.55;4.07;;;32.70;99.90;;;;;;5093431;28;20028;-81
2022/09/16 13:08:25;;;;;;;5.90;4.60;;;31.70;99.90;;;;;;5093489;28;20081;-81
2022/09/16 13:11:02;;;;;;;4.68;3.65;;;32.80;99.90;;;;;;5083487;28;20074;-81
2022/09/16 13:13:41;;;;;;;5.63;4.10;;;33.30;99.90;;;;;;5093273;28;20032;-81